sensor_id;sensor_type;location;lat;lon;timestamp;P1;durP1;ratioP1;P2;durP2;ratioP2
11960;SDS011;6040;49.358;11.140;2024-01-11T00:02:10;32.10;;;19.17;;
11960;SDS011;6040;49.358;11.140;2024-01-11T00:04:37;28.50;;;18.60;;
11960;SDS011;6040;49.358;11.140;2024-01-11T00:07:05;26.52;;;18.08;;
11960;SDS011;6040;49.358;11.140;2024-01-11T00:09:32;28.52;;;18.35;;
11960;SDS011;6040;49.358;11.140;2024-01-11T00:11:58;28.23;;;18.40;;
11960;SDS011;6040;49.358;11.140;2024-01-11T00:14:25;28.45;;;18.80;;
11960;SDS011;6040;49.358;11.140;2024-01-11T00:16:52;29.05;;;19.38;;
11960;SDS011;6040;49.358;11.140;2024-01-11T00:19:20;28.90;;;19.20;;
11960;SDS011;6040;49.358;11.140;2024-01-11T00:21:47;28.02;;;18.33;;
11960;SDS011;6040;49.358;11.140;2024-01-11T00:24:14;29.45;;;18.67;;
11960;SDS011;6040;49.358;11.140;2024-01-11T00:26:41;28.05;;;18.65;;
11960;SDS011;6040;49.358;11.140;2024-01-11T00:29:07;29.70;;;18.60;;
11960;SDS011;6040;49.358;11.140;2024-01-11T00:31:34;29.42;;;18.77;;
11960;SDS011;6040;49.358;11.140;2024-01-11T00:34:02;29.95;;;18.92;;
11960;SDS011;6040;49.358;11.140;2024-01-11T00:36:30;28.52;;;18.13;;
11960;SDS011;6040;49.358;11.140;2024-01-11T00:38:58;28.55;;;17.50;;
11960;SDS011;6040;49.358;11.140;2024-01-11T00:41:24;29.38;;;18.42;;
11960;SDS011;6040;49.358;11.140;2024-01-11T00:43:51;27.38;;;17.92;;
11960;SDS011;6040;49.358;11.140;2024-01-11T00:46:18;28.95;;;17.90;;
11960;SDS011;6040;49.358;11.140;2024-01-11T00:48:45;26.48;;;17.88;;
11960;SDS011;6040;49.358;11.140;2024-01-11T00:51:12;28.25;;;18.83;;
11960;SDS011;6040;49.358;11.140;2024-01-11T00:53:40;32.80;;;19.65;;
11960;SDS011;6040;49.358;11.140;2024-01-11T00:56:14;32.55;;;19.77;;
11960;SDS011;6040;49.358;11.140;2024-01-11T00:58:41;33.70;;;20.45;;
11960;SDS011;6040;49.358;11.140;2024-01-11T01:01:08;30.65;;;19.58;;
11960;SDS011;6040;49.358;11.140;2024-01-11T01:03:36;31.98;;;20.00;;
11960;SDS011;6040;49.358;11.140;2024-01-11T01:06:03;33.40;;;19.13;;
11960;SDS011;6040;49.358;11.140;2024-01-11T01:08:30;31.42;;;19.40;;
11960;SDS011;6040;49.358;11.140;2024-01-11T01:10:58;30.48;;;20.38;;
11960;SDS011;6040;49.358;11.140;2024-01-11T01:13:25;32.22;;;19.55;;
11960;SDS011;6040;49.358;11.140;2024-01-11T01:15:52;33.35;;;20.50;;
11960;SDS011;6040;49.358;11.140;2024-01-11T01:18:19;28.40;;;19.13;;
11960;SDS011;6040;49.358;11.140;2024-01-11T01:20:45;30.17;;;19.67;;
11960;SDS011;6040;49.358;11.140;2024-01-11T01:23:12;30.42;;;19.70;;
11960;SDS011;6040;49.358;11.140;2024-01-11T01:25:39;31.25;;;20.02;;
11960;SDS011;6040;49.358;11.140;2024-01-11T01:28:07;30.40;;;19.52;;
11960;SDS011;6040;49.358;11.140;2024-01-11T01:30:35;32.70;;;20.45;;
11960;SDS011;6040;49.358;11.140;2024-01-11T01:33:02;30.88;;;20.27;;
11960;SDS011;6040;49.358;11.140;2024-01-11T01:35:29;32.50;;;20.38;;
11960;SDS011;6040;49.358;11.140;2024-01-11T01:37:56;33.28;;;21.45;;
11960;SDS011;6040;49.358;11.140;2024-01-11T01:40:22;33.72;;;21.15;;
11960;SDS011;6040;49.358;11.140;2024-01-11T01:42:49;30.83;;;19.80;;
11960;SDS011;6040;49.358;11.140;2024-01-11T01:45:17;30.02;;;19.52;;
11960;SDS011;6040;49.358;11.140;2024-01-11T01:47:44;29.43;;;19.47;;
11960;SDS011;6040;49.358;11.140;2024-01-11T01:50:11;29.92;;;20.13;;
11960;SDS011;6040;49.358;11.140;2024-01-11T01:52:39;30.00;;;19.77;;
11960;SDS011;6040;49.358;11.140;2024-01-11T01:55:09;28.13;;;19.40;;
11960;SDS011;6040;49.358;11.140;2024-01-11T01:57:38;33.08;;;20.60;;
11960;SDS011;6040;49.358;11.140;2024-01-11T02:00:07;31.42;;;20.52;;
11960;SDS011;6040;49.358;11.140;2024-01-11T02:02:38;33.78;;;21.40;;
11960;SDS011;6040;49.358;11.140;2024-01-11T02:05:07;34.08;;;21.45;;
11960;SDS011;6040;49.358;11.140;2024-01-11T02:07:35;34.80;;;20.88;;
11960;SDS011;6040;49.358;11.140;2024-01-11T02:10:03;32.53;;;20.10;;
11960;SDS011;6040;49.358;11.140;2024-01-11T02:12:30;29.77;;;19.35;;
11960;SDS011;6040;49.358;11.140;2024-01-11T02:14:57;29.93;;;20.10;;
11960;SDS011;6040;49.358;11.140;2024-01-11T02:17:24;32.22;;;19.27;;
11960;SDS011;6040;49.358;11.140;2024-01-11T02:19:52;30.85;;;19.50;;
11960;SDS011;6040;49.358;11.140;2024-01-11T02:22:20;30.45;;;19.98;;
11960;SDS011;6040;49.358;11.140;2024-01-11T02:24:51;30.88;;;19.42;;
11960;SDS011;6040;49.358;11.140;2024-01-11T02:27:18;30.25;;;19.33;;
11960;SDS011;6040;49.358;11.140;2024-01-11T02:29:45;29.50;;;19.42;;
11960;SDS011;6040;49.358;11.140;2024-01-11T02:32:12;28.80;;;18.52;;
11960;SDS011;6040;49.358;11.140;2024-01-11T02:34:38;29.58;;;19.63;;
11960;SDS011;6040;49.358;11.140;2024-01-11T02:37:06;30.38;;;19.42;;
11960;SDS011;6040;49.358;11.140;2024-01-11T02:39:33;29.08;;;19.30;;
11960;SDS011;6040;49.358;11.140;2024-01-11T02:42:02;29.65;;;18.92;;
11960;SDS011;6040;49.358;11.140;2024-01-11T02:44:29;29.77;;;19.27;;
11960;SDS011;6040;49.358;11.140;2024-01-11T02:46:55;29.67;;;18.92;;
11960;SDS011;6040;49.358;11.140;2024-01-11T02:49:22;28.73;;;18.67;;
11960;SDS011;6040;49.358;11.140;2024-01-11T02:51:49;28.88;;;18.67;;
11960;SDS011;6040;49.358;11.140;2024-01-11T02:54:16;29.33;;;19.00;;
11960;SDS011;6040;49.358;11.140;2024-01-11T02:56:43;28.98;;;18.70;;
11960;SDS011;6040;49.358;11.140;2024-01-11T02:59:11;32.00;;;19.75;;
11960;SDS011;6040;49.358;11.140;2024-01-11T03:01:38;31.15;;;19.27;;
11960;SDS011;6040;49.358;11.140;2024-01-11T03:04:05;30.83;;;19.05;;
11960;SDS011;6040;49.358;11.140;2024-01-11T03:06:31;28.65;;;18.88;;
11960;SDS011;6040;49.358;11.140;2024-01-11T03:08:58;29.88;;;18.38;;
11960;SDS011;6040;49.358;11.140;2024-01-11T03:11:25;27.77;;;18.27;;
11960;SDS011;6040;49.358;11.140;2024-01-11T03:13:52;26.85;;;17.23;;
11960;SDS011;6040;49.358;11.140;2024-01-11T03:16:20;29.35;;;18.42;;
11960;SDS011;6040;49.358;11.140;2024-01-11T03:18:47;27.30;;;17.88;;
11960;SDS011;6040;49.358;11.140;2024-01-11T03:21:14;28.33;;;18.10;;
11960;SDS011;6040;49.358;11.140;2024-01-11T03:23:40;29.40;;;18.30;;
11960;SDS011;6040;49.358;11.140;2024-01-11T03:26:11;27.73;;;18.48;;
11960;SDS011;6040;49.358;11.140;2024-01-11T03:28:39;29.63;;;19.07;;
11960;SDS011;6040;49.358;11.140;2024-01-11T03:31:07;29.13;;;19.35;;
11960;SDS011;6040;49.358;11.140;2024-01-11T03:33:35;29.05;;;19.13;;
11960;SDS011;6040;49.358;11.140;2024-01-11T03:36:06;31.83;;;20.08;;
11960;SDS011;6040;49.358;11.140;2024-01-11T03:38:33;31.75;;;20.15;;
11960;SDS011;6040;49.358;11.140;2024-01-11T03:41:01;30.45;;;19.50;;
11960;SDS011;6040;49.358;11.140;2024-01-11T03:43:28;29.15;;;18.65;;
11960;SDS011;6040;49.358;11.140;2024-01-11T03:45:54;29.27;;;18.48;;
11960;SDS011;6040;49.358;11.140;2024-01-11T03:48:21;28.05;;;18.13;;
11960;SDS011;6040;49.358;11.140;2024-01-11T03:50:49;28.17;;;17.70;;
11960;SDS011;6040;49.358;11.140;2024-01-11T03:53:16;26.65;;;17.23;;
11960;SDS011;6040;49.358;11.140;2024-01-11T03:55:43;29.58;;;18.23;;
11960;SDS011;6040;49.358;11.140;2024-01-11T03:58:10;25.30;;;17.55;;
11960;SDS011;6040;49.358;11.140;2024-01-11T04:00:37;27.67;;;17.50;;
11960;SDS011;6040;49.358;11.140;2024-01-11T04:03:05;27.70;;;17.70;;
11960;SDS011;6040;49.358;11.140;2024-01-11T04:05:32;28.75;;;17.65;;
11960;SDS011;6040;49.358;11.140;2024-01-11T04:08:02;28.08;;;17.48;;
11960;SDS011;6040;49.358;11.140;2024-01-11T04:10:30;28.33;;;17.47;;
11960;SDS011;6040;49.358;11.140;2024-01-11T04:12:57;27.65;;;17.55;;
11960;SDS011;6040;49.358;11.140;2024-01-11T04:15:24;26.70;;;17.52;;
11960;SDS011;6040;49.358;11.140;2024-01-11T04:17:50;26.80;;;17.33;;
11960;SDS011;6040;49.358;11.140;2024-01-11T04:20:17;31.40;;;18.30;;
11960;SDS011;6040;49.358;11.140;2024-01-11T04:22:44;27.52;;;17.38;;
11960;SDS011;6040;49.358;11.140;2024-01-11T04:25:12;27.88;;;17.67;;
11960;SDS011;6040;49.358;11.140;2024-01-11T04:27:39;28.08;;;18.05;;
11960;SDS011;6040;49.358;11.140;2024-01-11T04:30:06;29.33;;;17.83;;
11960;SDS011;6040;49.358;11.140;2024-01-11T04:32:34;29.73;;;17.83;;
11960;SDS011;6040;49.358;11.140;2024-01-11T04:35:00;28.40;;;17.65;;
11960;SDS011;6040;49.358;11.140;2024-01-11T04:37:27;28.55;;;17.85;;
11960;SDS011;6040;49.358;11.140;2024-01-11T04:39:54;29.60;;;18.35;;
11960;SDS011;6040;49.358;11.140;2024-01-11T04:42:26;27.73;;;17.85;;
11960;SDS011;6040;49.358;11.140;2024-01-11T04:44:53;28.48;;;18.40;;
11960;SDS011;6040;49.358;11.140;2024-01-11T04:47:20;30.00;;;18.85;;
11960;SDS011;6040;49.358;11.140;2024-01-11T04:49:47;27.52;;;17.67;;
11960;SDS011;6040;49.358;11.140;2024-01-11T04:52:13;29.30;;;17.50;;
11960;SDS011;6040;49.358;11.140;2024-01-11T04:54:40;28.30;;;18.30;;
11960;SDS011;6040;49.358;11.140;2024-01-11T04:57:07;27.50;;;18.13;;
11960;SDS011;6040;49.358;11.140;2024-01-11T04:59:35;28.52;;;17.80;;
11960;SDS011;6040;49.358;11.140;2024-01-11T05:02:02;27.50;;;18.35;;
11960;SDS011;6040;49.358;11.140;2024-01-11T05:04:29;28.75;;;17.92;;
11960;SDS011;6040;49.358;11.140;2024-01-11T05:06:56;28.10;;;17.90;;
11960;SDS011;6040;49.358;11.140;2024-01-11T05:09:23;28.33;;;17.27;;
11960;SDS011;6040;49.358;11.140;2024-01-11T05:11:50;29.33;;;18.70;;
11960;SDS011;6040;49.358;11.140;2024-01-11T05:14:16;28.17;;;17.65;;
11960;SDS011;6040;49.358;11.140;2024-01-11T05:16:45;27.52;;;18.08;;
11960;SDS011;6040;49.358;11.140;2024-01-11T05:19:11;29.52;;;17.20;;
11960;SDS011;6040;49.358;11.140;2024-01-11T05:21:38;29.95;;;18.05;;
11960;SDS011;6040;49.358;11.140;2024-01-11T05:24:05;29.13;;;17.77;;
11960;SDS011;6040;49.358;11.140;2024-01-11T05:26:32;26.40;;;17.52;;
11960;SDS011;6040;49.358;11.140;2024-01-11T05:28:59;28.13;;;17.85;;
11960;SDS011;6040;49.358;11.140;2024-01-11T05:31:25;29.88;;;18.75;;
11960;SDS011;6040;49.358;11.140;2024-01-11T05:33:53;37.25;;;23.63;;
11960;SDS011;6040;49.358;11.140;2024-01-11T05:36:20;30.00;;;18.67;;
11960;SDS011;6040;49.358;11.140;2024-01-11T05:38:47;32.40;;;19.52;;
11960;SDS011;6040;49.358;11.140;2024-01-11T05:41:14;29.00;;;18.13;;
11960;SDS011;6040;49.358;11.140;2024-01-11T05:43:41;27.70;;;17.40;;
11960;SDS011;6040;49.358;11.140;2024-01-11T05:46:09;26.90;;;17.30;;
11960;SDS011;6040;49.358;11.140;2024-01-11T05:48:36;27.40;;;17.70;;
11960;SDS011;6040;49.358;11.140;2024-01-11T05:51:04;31.02;;;18.58;;
11960;SDS011;6040;49.358;11.140;2024-01-11T05:53:31;28.88;;;18.58;;
11960;SDS011;6040;49.358;11.140;2024-01-11T05:56:00;29.95;;;19.83;;
11960;SDS011;6040;49.358;11.140;2024-01-11T05:58:28;32.80;;;21.33;;
11960;SDS011;6040;49.358;11.140;2024-01-11T06:00:55;31.40;;;19.65;;
11960;SDS011;6040;49.358;11.140;2024-01-11T06:03:22;29.02;;;19.35;;
11960;SDS011;6040;49.358;11.140;2024-01-11T06:05:48;30.30;;;18.95;;
11960;SDS011;6040;49.358;11.140;2024-01-11T06:08:17;31.90;;;19.90;;
11960;SDS011;6040;49.358;11.140;2024-01-11T06:10:43;32.92;;;19.48;;
11960;SDS011;6040;49.358;11.140;2024-01-11T06:13:09;33.60;;;18.88;;
11960;SDS011;6040;49.358;11.140;2024-01-11T06:15:36;30.23;;;19.38;;
11960;SDS011;6040;49.358;11.140;2024-01-11T06:18:03;31.25;;;18.95;;
11960;SDS011;6040;49.358;11.140;2024-01-11T06:20:30;32.13;;;18.40;;
11960;SDS011;6040;49.358;11.140;2024-01-11T06:22:57;31.40;;;19.23;;
11960;SDS011;6040;49.358;11.140;2024-01-11T06:25:25;37.88;;;20.13;;
11960;SDS011;6040;49.358;11.140;2024-01-11T06:27:52;36.67;;;21.13;;
11960;SDS011;6040;49.358;11.140;2024-01-11T06:30:20;34.67;;;21.37;;
11960;SDS011;6040;49.358;11.140;2024-01-11T06:32:46;34.78;;;20.42;;
11960;SDS011;6040;49.358;11.140;2024-01-11T06:35:13;31.83;;;18.95;;
11960;SDS011;6040;49.358;11.140;2024-01-11T06:37:40;34.63;;;20.23;;
11960;SDS011;6040;49.358;11.140;2024-01-11T06:40:07;37.08;;;20.70;;
11960;SDS011;6040;49.358;11.140;2024-01-11T06:42:35;30.25;;;19.13;;
11960;SDS011;6040;49.358;11.140;2024-01-11T06:45:02;29.80;;;18.92;;
11960;SDS011;6040;49.358;11.140;2024-01-11T06:47:29;32.10;;;19.60;;
11960;SDS011;6040;49.358;11.140;2024-01-11T06:49:56;31.65;;;19.48;;
11960;SDS011;6040;49.358;11.140;2024-01-11T06:52:22;31.77;;;19.95;;
11960;SDS011;6040;49.358;11.140;2024-01-11T06:54:49;30.43;;;19.07;;
11960;SDS011;6040;49.358;11.140;2024-01-11T06:57:15;31.58;;;20.13;;
11960;SDS011;6040;49.358;11.140;2024-01-11T06:59:44;32.97;;;20.52;;
11960;SDS011;6040;49.358;11.140;2024-01-11T07:02:11;31.85;;;20.13;;
11960;SDS011;6040;49.358;11.140;2024-01-11T07:04:38;35.10;;;20.80;;
11960;SDS011;6040;49.358;11.140;2024-01-11T07:07:10;33.10;;;21.58;;
11960;SDS011;6040;49.358;11.140;2024-01-11T07:09:36;36.60;;;20.55;;
11960;SDS011;6040;49.358;11.140;2024-01-11T07:12:04;33.67;;;20.48;;
11960;SDS011;6040;49.358;11.140;2024-01-11T07:14:33;32.72;;;20.98;;
11960;SDS011;6040;49.358;11.140;2024-01-11T07:17:01;29.77;;;19.17;;
11960;SDS011;6040;49.358;11.140;2024-01-11T07:19:29;32.35;;;19.40;;
11960;SDS011;6040;49.358;11.140;2024-01-11T07:21:55;31.23;;;19.33;;
11960;SDS011;6040;49.358;11.140;2024-01-11T07:24:22;32.30;;;19.73;;
11960;SDS011;6040;49.358;11.140;2024-01-11T07:26:50;35.10;;;20.63;;
11960;SDS011;6040;49.358;11.140;2024-01-11T07:29:17;33.97;;;20.65;;
11960;SDS011;6040;49.358;11.140;2024-01-11T07:31:43;31.90;;;20.08;;
11960;SDS011;6040;49.358;11.140;2024-01-11T07:34:12;34.53;;;20.67;;
11960;SDS011;6040;49.358;11.140;2024-01-11T07:36:38;36.10;;;21.40;;
11960;SDS011;6040;49.358;11.140;2024-01-11T07:39:05;32.05;;;20.83;;
11960;SDS011;6040;49.358;11.140;2024-01-11T07:41:32;32.13;;;20.50;;
11960;SDS011;6040;49.358;11.140;2024-01-11T07:43:59;35.10;;;20.58;;
11960;SDS011;6040;49.358;11.140;2024-01-11T07:46:26;31.70;;;19.98;;
11960;SDS011;6040;49.358;11.140;2024-01-11T07:48:52;31.50;;;20.10;;
11960;SDS011;6040;49.358;11.140;2024-01-11T07:51:20;34.20;;;21.33;;
11960;SDS011;6040;49.358;11.140;2024-01-11T07:53:47;31.75;;;20.10;;
11960;SDS011;6040;49.358;11.140;2024-01-11T07:56:14;34.05;;;21.15;;
11960;SDS011;6040;49.358;11.140;2024-01-11T07:58:42;35.97;;;21.95;;
11960;SDS011;6040;49.358;11.140;2024-01-11T08:01:09;34.33;;;21.77;;
11960;SDS011;6040;49.358;11.140;2024-01-11T08:03:37;34.20;;;21.45;;
11960;SDS011;6040;49.358;11.140;2024-01-11T08:06:06;35.88;;;21.25;;
11960;SDS011;6040;49.358;11.140;2024-01-11T08:08:35;31.70;;;20.50;;
11960;SDS011;6040;49.358;11.140;2024-01-11T08:11:06;32.58;;;20.17;;
11960;SDS011;6040;49.358;11.140;2024-01-11T08:13:34;32.85;;;20.80;;
11960;SDS011;6040;49.358;11.140;2024-01-11T08:16:02;33.15;;;20.65;;
11960;SDS011;6040;49.358;11.140;2024-01-11T08:18:34;36.08;;;21.33;;
11960;SDS011;6040;49.358;11.140;2024-01-11T08:21:01;36.42;;;22.08;;
11960;SDS011;6040;49.358;11.140;2024-01-11T08:23:31;34.33;;;21.33;;
11960;SDS011;6040;49.358;11.140;2024-01-11T08:25:59;36.95;;;22.10;;
11960;SDS011;6040;49.358;11.140;2024-01-11T08:28:26;35.10;;;21.88;;
11960;SDS011;6040;49.358;11.140;2024-01-11T08:30:53;39.93;;;25.23;;
11960;SDS011;6040;49.358;11.140;2024-01-11T08:33:21;38.28;;;24.70;;
11960;SDS011;6040;49.358;11.140;2024-01-11T08:35:48;33.65;;;22.27;;
11960;SDS011;6040;49.358;11.140;2024-01-11T08:38:14;38.45;;;24.42;;
11960;SDS011;6040;49.358;11.140;2024-01-11T08:40:41;36.88;;;23.50;;
11960;SDS011;6040;49.358;11.140;2024-01-11T08:43:11;33.17;;;22.33;;
11960;SDS011;6040;49.358;11.140;2024-01-11T08:45:38;38.60;;;25.08;;
11960;SDS011;6040;49.358;11.140;2024-01-11T08:48:05;36.95;;;23.30;;
11960;SDS011;6040;49.358;11.140;2024-01-11T08:50:32;37.87;;;24.10;;
11960;SDS011;6040;49.358;11.140;2024-01-11T08:52:59;37.67;;;24.13;;
11960;SDS011;6040;49.358;11.140;2024-01-11T08:55:26;38.35;;;24.13;;
11960;SDS011;6040;49.358;11.140;2024-01-11T08:57:53;33.75;;;21.02;;
11960;SDS011;6040;49.358;11.140;2024-01-11T09:00:21;30.35;;;20.58;;
11960;SDS011;6040;49.358;11.140;2024-01-11T09:02:48;30.13;;;19.17;;
11960;SDS011;6040;49.358;11.140;2024-01-11T09:05:15;31.60;;;21.10;;
11960;SDS011;6040;49.358;11.140;2024-01-11T09:07:42;38.83;;;23.38;;
11960;SDS011;6040;49.358;11.140;2024-01-11T09:10:09;38.00;;;23.35;;
11960;SDS011;6040;49.358;11.140;2024-01-11T09:12:37;36.05;;;24.08;;
11960;SDS011;6040;49.358;11.140;2024-01-11T09:15:04;39.75;;;24.48;;
11960;SDS011;6040;49.358;11.140;2024-01-11T09:17:33;37.72;;;23.80;;
11960;SDS011;6040;49.358;11.140;2024-01-11T09:20:00;33.65;;;22.63;;
11960;SDS011;6040;49.358;11.140;2024-01-11T09:22:27;37.38;;;23.25;;
11960;SDS011;6040;49.358;11.140;2024-01-11T09:24:54;34.22;;;23.17;;
11960;SDS011;6040;49.358;11.140;2024-01-11T09:27:21;34.45;;;22.42;;
11960;SDS011;6040;49.358;11.140;2024-01-11T09:29:48;36.93;;;23.53;;
11960;SDS011;6040;49.358;11.140;2024-01-11T09:32:15;37.47;;;23.87;;
11960;SDS011;6040;49.358;11.140;2024-01-11T09:34:43;35.97;;;23.10;;
11960;SDS011;6040;49.358;11.140;2024-01-11T09:37:10;34.85;;;23.13;;
11960;SDS011;6040;49.358;11.140;2024-01-11T09:39:37;36.15;;;23.27;;
11960;SDS011;6040;49.358;11.140;2024-01-11T09:42:05;38.13;;;23.30;;
11960;SDS011;6040;49.358;11.140;2024-01-11T09:44:34;36.33;;;23.75;;
11960;SDS011;6040;49.358;11.140;2024-01-11T09:47:03;36.88;;;23.83;;
11960;SDS011;6040;49.358;11.140;2024-01-11T09:49:31;34.80;;;23.42;;
11960;SDS011;6040;49.358;11.140;2024-01-11T09:52:04;35.97;;;23.50;;
11960;SDS011;6040;49.358;11.140;2024-01-11T09:54:33;33.08;;;23.45;;
11960;SDS011;6040;49.358;11.140;2024-01-11T09:57:01;33.63;;;23.23;;
11960;SDS011;6040;49.358;11.140;2024-01-11T09:59:29;33.50;;;22.33;;
11960;SDS011;6040;49.358;11.140;2024-01-11T10:01:57;32.28;;;21.83;;
11960;SDS011;6040;49.358;11.140;2024-01-11T10:04:26;33.13;;;21.98;;
11960;SDS011;6040;49.358;11.140;2024-01-11T10:06:53;33.58;;;22.88;;
11960;SDS011;6040;49.358;11.140;2024-01-11T10:09:22;35.35;;;22.80;;
11960;SDS011;6040;49.358;11.140;2024-01-11T10:11:49;33.25;;;22.20;;
11960;SDS011;6040;49.358;11.140;2024-01-11T10:14:18;31.88;;;22.00;;
11960;SDS011;6040;49.358;11.140;2024-01-11T10:16:47;29.77;;;21.70;;
11960;SDS011;6040;49.358;11.140;2024-01-11T10:19:14;33.60;;;22.15;;
11960;SDS011;6040;49.358;11.140;2024-01-11T10:21:41;32.63;;;22.87;;
11960;SDS011;6040;49.358;11.140;2024-01-11T10:24:08;34.50;;;22.23;;
11960;SDS011;6040;49.358;11.140;2024-01-11T10:26:36;32.33;;;22.73;;
11960;SDS011;6040;49.358;11.140;2024-01-11T10:29:04;32.07;;;21.97;;
11960;SDS011;6040;49.358;11.140;2024-01-11T10:31:35;31.38;;;22.13;;
11960;SDS011;6040;49.358;11.140;2024-01-11T10:34:03;33.88;;;23.33;;
11960;SDS011;6040;49.358;11.140;2024-01-11T10:36:31;30.83;;;21.85;;
11960;SDS011;6040;49.358;11.140;2024-01-11T10:38:58;33.10;;;21.98;;
11960;SDS011;6040;49.358;11.140;2024-01-11T10:41:31;30.33;;;20.95;;
11960;SDS011;6040;49.358;11.140;2024-01-11T10:44:03;34.03;;;22.17;;
11960;SDS011;6040;49.358;11.140;2024-01-11T10:46:31;33.70;;;21.85;;
11960;SDS011;6040;49.358;11.140;2024-01-11T10:49:00;33.00;;;22.25;;
11960;SDS011;6040;49.358;11.140;2024-01-11T10:51:30;29.90;;;21.95;;
11960;SDS011;6040;49.358;11.140;2024-01-11T10:53:58;34.25;;;23.35;;
11960;SDS011;6040;49.358;11.140;2024-01-11T10:56:26;33.78;;;22.25;;
11960;SDS011;6040;49.358;11.140;2024-01-11T10:58:54;32.22;;;22.10;;
11960;SDS011;6040;49.358;11.140;2024-01-11T11:01:24;33.42;;;22.42;;
11960;SDS011;6040;49.358;11.140;2024-01-11T11:03:52;32.70;;;22.30;;
11960;SDS011;6040;49.358;11.140;2024-01-11T11:06:20;30.17;;;21.55;;
11960;SDS011;6040;49.358;11.140;2024-01-11T11:08:49;32.25;;;21.75;;
11960;SDS011;6040;49.358;11.140;2024-01-11T11:11:16;33.55;;;22.25;;
11960;SDS011;6040;49.358;11.140;2024-01-11T11:13:44;29.80;;;21.40;;
11960;SDS011;6040;49.358;11.140;2024-01-11T11:16:14;32.65;;;22.02;;
11960;SDS011;6040;49.358;11.140;2024-01-11T11:18:42;34.53;;;22.58;;
11960;SDS011;6040;49.358;11.140;2024-01-11T11:21:09;31.23;;;22.25;;
11960;SDS011;6040;49.358;11.140;2024-01-11T11:23:37;31.95;;;22.05;;
11960;SDS011;6040;49.358;11.140;2024-01-11T11:26:05;29.88;;;21.85;;
11960;SDS011;6040;49.358;11.140;2024-01-11T11:28:32;30.20;;;21.30;;
11960;SDS011;6040;49.358;11.140;2024-01-11T11:31:02;30.75;;;21.83;;
11960;SDS011;6040;49.358;11.140;2024-01-11T11:33:29;32.50;;;21.73;;
11960;SDS011;6040;49.358;11.140;2024-01-11T11:35:58;31.15;;;22.33;;
11960;SDS011;6040;49.358;11.140;2024-01-11T11:38:26;30.42;;;21.95;;
11960;SDS011;6040;49.358;11.140;2024-01-11T11:40:54;31.33;;;21.58;;
11960;SDS011;6040;49.358;11.140;2024-01-11T11:43:23;30.65;;;21.90;;
11960;SDS011;6040;49.358;11.140;2024-01-11T11:45:52;29.83;;;21.60;;
11960;SDS011;6040;49.358;11.140;2024-01-11T11:51:18;28.58;;;21.38;;
11960;SDS011;6040;49.358;11.140;2024-01-11T11:53:46;27.85;;;20.63;;
11960;SDS011;6040;49.358;11.140;2024-01-11T11:56:15;28.05;;;20.95;;
11960;SDS011;6040;49.358;11.140;2024-01-11T11:58:44;30.67;;;22.10;;
11960;SDS011;6040;49.358;11.140;2024-01-11T12:01:12;31.00;;;21.90;;
11960;SDS011;6040;49.358;11.140;2024-01-11T12:03:40;31.25;;;20.92;;
11960;SDS011;6040;49.358;11.140;2024-01-11T12:06:11;26.57;;;19.80;;
11960;SDS011;6040;49.358;11.140;2024-01-11T12:08:41;25.88;;;18.52;;
11960;SDS011;6040;49.358;11.140;2024-01-11T12:11:09;25.67;;;18.73;;
11960;SDS011;6040;49.358;11.140;2024-01-11T12:13:39;25.95;;;19.42;;
11960;SDS011;6040;49.358;11.140;2024-01-11T12:16:08;26.47;;;19.53;;
11960;SDS011;6040;49.358;11.140;2024-01-11T12:18:35;25.35;;;18.65;;
11960;SDS011;6040;49.358;11.140;2024-01-11T12:21:02;25.38;;;18.15;;
11960;SDS011;6040;49.358;11.140;2024-01-11T12:23:29;23.95;;;18.00;;
11960;SDS011;6040;49.358;11.140;2024-01-11T12:25:59;25.67;;;18.08;;
11960;SDS011;6040;49.358;11.140;2024-01-11T12:28:27;26.05;;;18.50;;
11960;SDS011;6040;49.358;11.140;2024-01-11T12:30:54;25.42;;;18.60;;
11960;SDS011;6040;49.358;11.140;2024-01-11T12:33:21;22.63;;;17.13;;
11960;SDS011;6040;49.358;11.140;2024-01-11T12:35:49;22.88;;;17.95;;
11960;SDS011;6040;49.358;11.140;2024-01-11T12:38:16;25.27;;;18.40;;
11960;SDS011;6040;49.358;11.140;2024-01-11T12:40:43;29.53;;;20.27;;
11960;SDS011;6040;49.358;11.140;2024-01-11T12:43:14;28.00;;;20.50;;
11960;SDS011;6040;49.358;11.140;2024-01-11T12:45:42;29.42;;;20.45;;
11960;SDS011;6040;49.358;11.140;2024-01-11T12:48:09;27.50;;;20.38;;
11960;SDS011;6040;49.358;11.140;2024-01-11T12:50:39;27.35;;;19.17;;
11960;SDS011;6040;49.358;11.140;2024-01-11T12:53:07;25.40;;;18.33;;
11960;SDS011;6040;49.358;11.140;2024-01-11T12:55:33;25.35;;;18.48;;
11960;SDS011;6040;49.358;11.140;2024-01-11T12:58:04;25.52;;;19.55;;
11960;SDS011;6040;49.358;11.140;2024-01-11T13:00:36;26.33;;;20.13;;
11960;SDS011;6040;49.358;11.140;2024-01-11T13:03:03;26.83;;;19.38;;
11960;SDS011;6040;49.358;11.140;2024-01-11T13:05:31;25.70;;;18.70;;
11960;SDS011;6040;49.358;11.140;2024-01-11T13:08:00;24.20;;;17.83;;
11960;SDS011;6040;49.358;11.140;2024-01-11T13:10:29;24.63;;;17.70;;
11960;SDS011;6040;49.358;11.140;2024-01-11T13:12:58;21.73;;;17.00;;
11960;SDS011;6040;49.358;11.140;2024-01-11T13:15:25;24.08;;;17.92;;
11960;SDS011;6040;49.358;11.140;2024-01-11T13:17:55;23.88;;;17.65;;
11960;SDS011;6040;49.358;11.140;2024-01-11T13:20:22;27.07;;;18.60;;
11960;SDS011;6040;49.358;11.140;2024-01-11T13:22:49;25.23;;;18.25;;
11960;SDS011;6040;49.358;11.140;2024-01-11T13:25:36;25.40;;;18.10;;
11960;SDS011;6040;49.358;11.140;2024-01-11T13:28:03;26.00;;;18.92;;
11960;SDS011;6040;49.358;11.140;2024-01-11T13:30:31;23.77;;;17.77;;
11960;SDS011;6040;49.358;11.140;2024-01-11T13:33:00;21.90;;;16.90;;
11960;SDS011;6040;49.358;11.140;2024-01-11T13:35:26;22.52;;;16.65;;
11960;SDS011;6040;49.358;11.140;2024-01-11T13:37:53;21.40;;;16.97;;
11960;SDS011;6040;49.358;11.140;2024-01-11T13:40:20;23.63;;;17.25;;
11960;SDS011;6040;49.358;11.140;2024-01-11T13:42:47;24.52;;;17.70;;
11960;SDS011;6040;49.358;11.140;2024-01-11T13:45:14;24.13;;;17.52;;
11960;SDS011;6040;49.358;11.140;2024-01-11T13:47:41;24.95;;;18.23;;
11960;SDS011;6040;49.358;11.140;2024-01-11T13:50:10;25.73;;;18.57;;
11960;SDS011;6040;49.358;11.140;2024-01-11T13:52:37;26.45;;;18.70;;
11960;SDS011;6040;49.358;11.140;2024-01-11T13:55:05;23.98;;;18.42;;
11960;SDS011;6040;49.358;11.140;2024-01-11T13:57:32;23.80;;;17.88;;
11960;SDS011;6040;49.358;11.140;2024-01-11T13:59:59;24.77;;;18.08;;
11960;SDS011;6040;49.358;11.140;2024-01-11T14:02:26;24.45;;;18.00;;
11960;SDS011;6040;49.358;11.140;2024-01-11T14:04:52;26.00;;;17.88;;
11960;SDS011;6040;49.358;11.140;2024-01-11T14:07:20;24.20;;;18.17;;
11960;SDS011;6040;49.358;11.140;2024-01-11T14:09:47;26.60;;;18.27;;
11960;SDS011;6040;49.358;11.140;2024-01-11T14:12:14;24.45;;;18.25;;
11960;SDS011;6040;49.358;11.140;2024-01-11T14:14:41;24.90;;;18.13;;
11960;SDS011;6040;49.358;11.140;2024-01-11T14:17:08;25.55;;;18.35;;
11960;SDS011;6040;49.358;11.140;2024-01-11T14:19:35;24.73;;;18.08;;
11960;SDS011;6040;49.358;11.140;2024-01-11T14:22:02;25.20;;;17.80;;
11960;SDS011;6040;49.358;11.140;2024-01-11T14:24:30;23.23;;;17.33;;
11960;SDS011;6040;49.358;11.140;2024-01-11T14:26:57;25.45;;;17.60;;